Salmon, ID

11:27 PM MDT on April 01, 2015 (GMT -0600)
Lemhi County | | Change Station
CLOSE
Current Station
Airport
Location: Salmon,
Elevation: 4045 ft
Nearby Weather Stations

Elev 4045 ft 45.12 °N, 113.88 °W | Updated 12 minutes ago

Partly Cloudy
Partly Cloudy
30 °F
Feels Like 30 °F
N
0
Wind Variable Wind from North

Today
High -- | Low -- °F
--% Chance of Precip.
Yesterday
High -- | Low -- °F
Precip. -- in
7:16 AM 8:03 PM
Waxing Gibbous, 95% visible
Pressure 30.09 in
Visibility 10.0 miles
Clouds Few 6000 ft
Few 11000 ft
Dew Point 21 °F
Humidity 69%
Rainfall 0.00 in
Snow Depth Not available.
UV 0 out of 12
Pollen 4.80 out of 12
Air Quality Not available.
Flu Activity Not available.
METAR KSMN 020515Z AUTO 00000KT 10SM FEW060 FEW110 M01/M06 A3009 RMK AO1

More Conditions Fewer Conditions

Pressure 30.09 in
Visibility 10.0 miles
Clouds Few 6000 ft
Few 11000 ft
Dew Point 21 °F
Humidity 69%
Rainfall 0.00 in
Snow Depth Not available.
UV 0 out of 12
Pollen 4.80 out of 12
Air Quality Not available.
Flu Activity Not available.
METAR KSMN 020515Z AUTO 00000KT 10SM FEW060 FEW110 M01/M06 A3009 RMK AO1

More Conditions Fewer Conditions

10-Day Weather Forecast

Almanac

Astronomy

Apr. 01, 2015 Rise Set
Actual Time
Civil Twilight
Nautical Twilight
Astronomical Twilight
Moon
Length of Visible Light
Length of Day
Tomorrow will be .
, % of the Moon is Illuminated

Today's Extremes

State Highs State Lows

Community

WunderPhotos

Upload Photos

1,810,201 photos uploaded!

WunderBlogs® & News

Nearby

Air Quality

  Air Quality AQ Index Pollutant
Not available.

Snow Depth

Station Depth Elevation

Earthquake Activity

City Distance Mag. Time & Date
Minimum magnitude displayed is 2.5.

Coastal Water Temperatures

Place Temperature

Stations

Nearby Weather Stations

Station Location Temp. Windchill Dew Point Humidity Wind Precip. Elev Updated Type